createdAt,value
2018-07-26T00:01:01.894Z,68.48
2018-07-26T00:03:28.920Z,67.92
2018-07-26T00:05:56.009Z,68.12
2018-07-26T00:08:22.969Z,68.19
2018-07-26T00:10:50.061Z,69.06
2018-07-26T00:13:17.072Z,68.45
2018-07-26T00:15:44.084Z,68.37
2018-07-26T00:18:11.085Z,69.12
2018-07-26T00:20:38.057Z,69.10
2018-07-26T00:23:05.301Z,68.51
2018-07-26T00:25:32.348Z,69.06
2018-07-26T00:27:59.329Z,68.74
2018-07-26T00:30:26.349Z,68.83
2018-07-26T00:32:53.387Z,68.72
2018-07-26T00:35:20.373Z,69.06
2018-07-26T00:37:47.345Z,68.60
2018-07-26T00:40:14.348Z,68.47
2018-07-26T00:42:41.336Z,69.15
2018-07-26T00:45:08.345Z,69.05
2018-07-26T00:47:35.432Z,68.98
2018-07-26T00:50:02.586Z,68.72
2018-07-26T00:52:29.586Z,69.46
2018-07-26T00:54:56.609Z,69.63
2018-07-26T00:57:23.877Z,68.94
2018-07-26T00:59:50.846Z,69.21
2018-07-26T01:02:17.849Z,69.75
2018-07-26T01:04:44.905Z,70.06
2018-07-26T01:07:12.258Z,69.52
2018-07-26T01:09:39.348Z,70.30
2018-07-26T01:12:06.457Z,70.00
2018-07-26T01:14:33.582Z,69.83
2018-07-26T01:17:00.570Z,70.12
2018-07-26T01:19:27.613Z,70.98
2018-07-26T01:21:54.618Z,70.66
2018-07-26T01:24:21.649Z,71.67
2018-07-26T01:26:48.652Z,70.97
2018-07-26T01:29:18.888Z,71.54
2018-07-26T01:31:45.974Z,71.61
2018-07-26T01:34:12.948Z,71.32
2018-07-26T01:36:39.969Z,71.53
2018-07-26T01:39:07.757Z,71.58
2018-07-26T01:41:34.709Z,72.31
2018-07-26T01:44:13.141Z,72.35
2018-07-26T01:46:40.145Z,71.87
2018-07-26T01:49:07.176Z,71.85
2018-07-26T01:51:34.173Z,72.14
2018-07-26T01:54:01.429Z,71.55
2018-07-26T01:56:28.428Z,72.30
2018-07-26T01:58:55.389Z,71.73
2018-07-26T02:01:22.362Z,71.68
2018-07-26T02:03:49.456Z,71.19
2018-07-26T02:06:16.542Z,71.46
2018-07-26T02:08:43.525Z,71.93
2018-07-26T02:11:10.509Z,72.08
2018-07-26T02:13:37.493Z,71.79
2018-07-26T02:16:04.481Z,71.65
2018-07-26T02:18:31.503Z,71.23
2018-07-26T02:20:58.521Z,71.46
2018-07-26T02:23:25.580Z,71.02
2018-07-26T02:25:52.956Z,71.06
2018-07-26T02:28:19.937Z,71.17
2018-07-26T02:30:46.953Z,71.22
2018-07-26T02:33:14.110Z,71.86
2018-07-26T02:35:41.136Z,71.19
2018-07-26T02:38:08.789Z,72.09
2018-07-26T02:40:35.813Z,71.77
2018-07-26T02:43:02.847Z,71.78
2018-07-26T02:45:29.834Z,71.57
2018-07-26T02:47:57.033Z,72.23
2018-07-26T02:50:24.049Z,71.60
2018-07-26T02:52:51.005Z,72.22
2018-07-26T02:55:18.006Z,72.70
2018-07-26T02:57:45.006Z,72.50
2018-07-26T03:00:12.007Z,72.50
2018-07-26T03:02:39.110Z,72.47
2018-07-26T03:05:06.627Z,72.71
2018-07-26T03:07:33.684Z,72.41
2018-07-26T03:10:00.661Z,72.36
2018-07-26T03:12:27.661Z,72.43
2018-07-26T03:14:54.630Z,72.54
2018-07-26T03:17:21.662Z,73.41
2018-07-26T03:19:48.657Z,73.66
2018-07-26T03:22:15.689Z,73.30
2018-07-26T03:24:42.681Z,73.29
2018-07-26T03:27:10.244Z,73.33
2018-07-26T03:29:37.238Z,73.57
2018-07-26T03:32:04.237Z,74.34
2018-07-26T03:34:31.192Z,73.73
2018-07-26T03:36:58.182Z,74.57
2018-07-26T03:39:25.205Z,74.05
2018-07-26T03:41:52.225Z,73.90
2018-07-26T03:44:19.213Z,74.15
2018-07-26T03:46:46.261Z,74.73
2018-07-26T03:49:13.277Z,73.92
2018-07-26T03:51:40.264Z,74.92
2018-07-26T03:54:07.237Z,74.31
2018-07-26T03:56:34.270Z,74.45
2018-07-26T03:59:01.370Z,74.30
2018-07-26T04:01:28.358Z,75.09
2018-07-26T04:03:55.342Z,74.97
2018-07-26T04:06:22.624Z,74.48
2018-07-26T04:08:49.621Z,74.38
2018-07-26T04:11:16.622Z,74.78
2018-07-26T04:13:43.584Z,74.40
2018-07-26T04:16:10.613Z,74.36
2018-07-26T04:18:37.617Z,74.64
2018-07-26T04:21:04.617Z,74.90
2018-07-26T04:23:31.646Z,74.42
2018-07-26T04:25:58.656Z,73.80
2018-07-26T04:28:25.645Z,74.53
2018-07-26T04:30:52.693Z,73.95
2018-07-26T04:33:19.690Z,74.24
2018-07-26T04:35:46.669Z,74.13
2018-07-26T04:38:13.677Z,73.96
2018-07-26T04:40:40.669Z,74.74
2018-07-26T04:43:07.721Z,74.10
2018-07-26T04:45:34.701Z,73.30
2018-07-26T04:48:01.693Z,74.08
2018-07-26T04:50:28.644Z,74.11
2018-07-26T04:52:55.730Z,73.56
2018-07-26T04:55:22.697Z,73.39
2018-07-26T04:57:49.688Z,73.95
2018-07-26T05:00:16.761Z,73.72
2018-07-26T05:02:43.760Z,73.51
2018-07-26T05:05:10.716Z,72.95
2018-07-26T05:07:37.904Z,73.24
2018-07-26T05:10:04.975Z,72.33
2018-07-26T05:12:32.324Z,73.06
2018-07-26T05:14:59.547Z,72.03
2018-07-26T05:17:26.549Z,72.59
2018-07-26T05:19:53.584Z,71.78
2018-07-26T05:22:20.570Z,71.33
2018-07-26T05:24:47.585Z,71.29
2018-07-26T05:27:14.837Z,71.89
2018-07-26T05:29:41.812Z,71.08
2018-07-26T05:32:08.879Z,70.85
2018-07-26T05:34:36.025Z,71.37
2018-07-26T05:37:03.049Z,70.63
2018-07-26T05:39:30.085Z,70.72
2018-07-26T05:41:57.129Z,70.10
2018-07-26T05:44:24.093Z,69.98
2018-07-26T05:46:51.052Z,69.94
2018-07-26T05:49:18.149Z,69.39
2018-07-26T05:51:45.173Z,68.72
2018-07-26T05:54:12.170Z,68.98
2018-07-26T05:56:39.174Z,68.73
2018-07-26T05:59:06.181Z,68.78
2018-07-26T06:01:33.339Z,68.60
2018-07-26T06:04:00.337Z,68.34
2018-07-26T06:06:27.354Z,67.34
2018-07-26T06:08:54.344Z,67.57
2018-07-26T06:11:21.325Z,67.34
2018-07-26T06:13:48.353Z,66.64
2018-07-26T06:16:15.354Z,66.69
2018-07-26T06:18:42.501Z,66.52
2018-07-26T06:21:09.601Z,65.71
2018-07-26T06:23:36.583Z,66.06
2018-07-26T06:26:04.164Z,65.79
2018-07-26T06:28:31.188Z,65.10
2018-07-26T06:30:58.331Z,64.98
2018-07-26T06:33:25.373Z,63.41
2018-07-26T06:35:52.316Z,62.92
2018-07-26T06:38:19.290Z,62.38
2018-07-26T06:40:46.256Z,61.35
2018-07-26T06:43:13.264Z,61.01
2018-07-26T06:45:40.230Z,59.82
2018-07-26T06:48:07.437Z,59.07
2018-07-26T06:50:34.445Z,59.94
2018-07-26T06:53:01.528Z,58.75
2018-07-26T06:55:28.460Z,59.34
2018-07-26T06:57:55.434Z,58.25
2018-07-26T07:00:22.404Z,57.78
2018-07-26T07:02:49.434Z,57.91
2018-07-26T07:05:16.416Z,58.19
2018-07-26T07:07:43.392Z,58.49
2018-07-26T07:10:10.453Z,57.54
2018-07-26T07:12:37.421Z,56.67
2018-07-26T07:15:04.690Z,57.42
2018-07-26T07:17:31.693Z,56.55
2018-07-26T07:19:58.773Z,56.85
2018-07-26T07:22:25.755Z,56.92
2018-07-26T07:24:52.817Z,56.01
2018-07-26T07:27:19.793Z,55.76
2018-07-26T07:29:47.518Z,55.06
2018-07-26T07:32:14.524Z,54.74
2018-07-26T07:34:42.046Z,54.44
2018-07-26T07:37:09.073Z,53.76
2018-07-26T07:39:36.064Z,53.95
2018-07-26T07:42:03.098Z,53.64
2018-07-26T07:44:30.101Z,52.00
2018-07-26T07:46:57.069Z,51.85
2018-07-26T07:49:24.101Z,51.70
2018-07-26T07:51:51.117Z,50.91
2018-07-26T07:54:18.141Z,49.85
2018-07-26T07:56:45.114Z,49.63
2018-07-26T07:59:12.264Z,50.01
2018-07-26T08:01:39.232Z,49.57
2018-07-26T08:04:06.248Z,48.27
2018-07-26T08:06:33.236Z,48.31
2018-07-26T08:09:00.213Z,48.19
2018-07-26T08:11:27.190Z,48.11
2018-07-26T08:13:54.202Z,48.10
2018-07-26T08:16:21.257Z,46.39
2018-07-26T08:18:48.343Z,46.03
2018-07-26T08:21:15.370Z,45.65
2018-07-26T08:23:42.341Z,45.22
2018-07-26T08:26:09.331Z,44.53
2018-07-26T08:28:36.386Z,43.77
2018-07-26T08:31:03.459Z,43.34
2018-07-26T08:33:30.500Z,42.18
2018-07-26T08:35:57.453Z,42.74
2018-07-26T08:38:24.549Z,43.22
2018-07-26T08:40:51.557Z,42.12
2018-07-26T08:43:18.522Z,42.22
2018-07-26T08:45:45.545Z,41.45
2018-07-26T08:48:12.606Z,40.90
2018-07-26T08:50:39.596Z,40.59
2018-07-26T08:53:06.605Z,40.76
2018-07-26T08:55:33.733Z,41.14
2018-07-26T08:58:00.758Z,40.34
2018-07-26T09:00:27.775Z,40.73
2018-07-26T09:02:54.760Z,41.22
2018-07-26T09:05:22.122Z,41.10
2018-07-26T09:07:49.129Z,41.00
2018-07-26T09:10:16.339Z,41.59
2018-07-26T09:12:43.345Z,41.87
2018-07-26T09:15:10.393Z,42.15
2018-07-26T09:17:37.393Z,41.46
2018-07-26T09:20:05.009Z,41.35
2018-07-26T09:22:32.121Z,40.84
2018-07-26T09:24:59.142Z,40.79
2018-07-26T09:27:26.145Z,40.62
2018-07-26T09:29:53.130Z,40.94
2018-07-26T09:32:20.214Z,40.07
2018-07-26T09:34:47.192Z,40.41
2018-07-26T09:37:14.167Z,39.97
2018-07-26T09:39:41.332Z,39.70
2018-07-26T09:42:08.373Z,39.21
2018-07-26T09:44:35.425Z,39.21
2018-07-26T09:47:02.407Z,39.58
2018-07-26T09:49:29.420Z,38.60
2018-07-26T09:51:56.569Z,39.11
2018-07-26T09:54:23.554Z,38.76
2018-07-26T09:56:50.615Z,39.18
2018-07-26T09:59:17.610Z,38.43
2018-07-26T10:01:44.599Z,38.34
2018-07-26T10:04:11.576Z,38.35
2018-07-26T10:06:38.748Z,38.71
2018-07-26T10:09:08.466Z,37.86
2018-07-26T10:11:35.480Z,37.47
2018-07-26T10:14:02.475Z,37.59
2018-07-26T10:16:29.482Z,37.54
2018-07-26T10:18:56.445Z,36.93
2018-07-26T10:21:23.583Z,37.36
2018-07-26T10:23:50.580Z,37.63
2018-07-26T10:26:17.577Z,36.42
2018-07-26T10:28:44.623Z,36.99
2018-07-26T10:31:11.613Z,37.20
2018-07-26T10:33:38.604Z,36.82
2018-07-26T10:36:05.650Z,36.67
2018-07-26T10:38:32.637Z,37.58
2018-07-26T10:40:59.809Z,37.11
2018-07-26T10:43:26.885Z,36.66
2018-07-26T10:45:54.025Z,36.43
2018-07-26T10:48:20.981Z,36.59
2018-07-26T10:50:48.029Z,36.59
2018-07-26T10:53:15.133Z,36.47
2018-07-26T10:55:42.129Z,35.49
2018-07-26T10:58:09.104Z,36.41
2018-07-26T11:00:36.131Z,36.08
2018-07-26T11:03:03.165Z,36.76
2018-07-26T11:05:30.173Z,36.35
2018-07-26T11:07:57.248Z,36.19
2018-07-26T11:10:24.389Z,36.49
2018-07-26T11:12:51.380Z,36.48
2018-07-26T11:15:25.214Z,36.40
2018-07-26T11:17:52.193Z,36.12
2018-07-26T11:20:19.552Z,35.34
2018-07-26T11:22:46.738Z,35.16
2018-07-26T11:25:13.720Z,35.60
2018-07-26T11:27:40.730Z,34.52
2018-07-26T11:30:07.745Z,35.42
2018-07-26T11:32:34.761Z,35.74
2018-07-26T11:35:01.825Z,34.23
2018-07-26T11:37:29.020Z,34.75
2018-07-26T11:39:56.081Z,34.65
2018-07-26T11:42:23.085Z,33.58
2018-07-26T11:44:50.076Z,33.58
2018-07-26T11:47:17.712Z,34.23
2018-07-26T11:49:44.877Z,33.52
2018-07-26T11:52:11.910Z,33.73
2018-07-26T11:54:38.889Z,33.61
2018-07-26T11:57:05.885Z,33.52
2018-07-26T11:59:32.926Z,33.20
2018-07-26T12:01:59.920Z,32.33
2018-07-26T12:04:26.901Z,33.32
2018-07-26T12:06:54.242Z,33.17
2018-07-26T12:09:21.273Z,31.66
2018-07-26T12:11:48.260Z,32.20
2018-07-26T12:14:15.285Z,31.41
2018-07-26T12:16:42.290Z,31.96
2018-07-26T12:19:09.255Z,32.96
2018-07-26T12:21:36.289Z,32.16
2018-07-26T12:24:03.305Z,31.80
2018-07-26T12:26:30.367Z,31.87
2018-07-26T12:28:57.433Z,32.11
2018-07-26T12:31:24.597Z,31.69
2018-07-26T12:33:51.581Z,30.72
2018-07-26T12:36:18.606Z,30.91
2018-07-26T12:38:45.590Z,31.53
2018-07-26T12:41:12.683Z,31.28
2018-07-26T12:43:39.791Z,30.88
2018-07-26T12:46:06.798Z,31.25
2018-07-26T12:48:33.788Z,30.06
2018-07-26T12:51:01.197Z,31.03
2018-07-26T12:53:28.188Z,31.16
2018-07-26T12:55:55.201Z,29.87
2018-07-26T12:58:22.193Z,29.72
2018-07-26T13:00:49.781Z,30.84
2018-07-26T13:03:16.844Z,31.33
2018-07-26T13:05:43.857Z,30.23
2018-07-26T13:08:10.846Z,30.89
2018-07-26T13:10:37.859Z,31.53
2018-07-26T13:13:04.902Z,30.15
2018-07-26T13:15:32.053Z,30.26
2018-07-26T13:17:59.065Z,29.81
2018-07-26T13:20:26.300Z,30.33
2018-07-26T13:22:53.313Z,29.57
2018-07-26T13:25:20.312Z,31.20
2018-07-26T13:27:47.457Z,29.32
2018-07-26T13:30:14.457Z,29.42
2018-07-26T13:32:41.472Z,30.28
2018-07-26T13:35:08.476Z,29.99
2018-07-26T13:37:35.481Z,30.06
2018-07-26T13:40:02.715Z,30.09
2018-07-26T13:42:29.805Z,29.77
2018-07-26T13:44:56.840Z,30.61
2018-07-26T13:47:23.842Z,29.26
2018-07-26T13:49:50.809Z,30.52
2018-07-26T13:52:17.841Z,30.50
2018-07-26T13:54:44.821Z,29.62
2018-07-26T13:57:11.811Z,28.59
2018-07-26T13:59:38.797Z,29.25
2018-07-26T14:02:05.817Z,29.93
2018-07-26T14:04:32.849Z,28.87
2018-07-26T14:06:59.840Z,29.53
2018-07-26T14:09:26.852Z,28.13
2018-07-26T14:11:53.860Z,28.74
2018-07-26T14:14:21.113Z,28.03
2018-07-26T14:16:48.111Z,28.42
2018-07-26T14:19:15.117Z,28.50
2018-07-26T14:21:42.120Z,28.80
2018-07-26T14:24:14.992Z,29.16
2018-07-26T14:26:42.073Z,29.95
2018-07-26T14:29:09.085Z,28.78
2018-07-26T14:31:36.073Z,29.57
2018-07-26T14:34:03.105Z,28.82
2018-07-26T14:36:30.082Z,29.14
2018-07-26T14:38:57.084Z,28.54
2018-07-26T14:41:24.069Z,29.09
2018-07-26T14:43:51.093Z,29.59
2018-07-26T14:46:18.432Z,29.00
2018-07-26T14:48:45.433Z,29.18
2018-07-26T14:51:12.446Z,29.53
2018-07-26T14:53:39.445Z,29.09
2018-07-26T14:56:06.449Z,29.79
2018-07-26T14:58:33.445Z,28.61
2018-07-26T15:01:00.506Z,28.83
2018-07-26T15:03:27.448Z,29.34
2018-07-26T15:05:54.430Z,30.25
2018-07-26T15:08:21.413Z,30.19
2018-07-26T15:10:48.452Z,29.15
2018-07-26T15:13:15.493Z,29.97
2018-07-26T15:15:42.477Z,29.09
2018-07-26T15:18:09.556Z,29.76
2018-07-26T15:20:36.656Z,29.57
2018-07-26T15:23:03.640Z,29.05
2018-07-26T15:25:30.600Z,29.23
2018-07-26T15:27:57.617Z,28.03
2018-07-26T15:30:24.653Z,28.05
2018-07-26T15:32:52.650Z,28.59
2018-07-26T15:35:19.657Z,29.75
2018-07-26T15:37:47.202Z,29.99
2018-07-26T15:40:14.208Z,28.73
2018-07-26T15:42:41.176Z,28.98
2018-07-26T15:45:08.529Z,29.26
2018-07-26T15:47:35.497Z,31.25
2018-07-26T15:50:02.629Z,32.19
2018-07-26T15:52:29.648Z,33.60
2018-07-26T15:54:56.665Z,34.01
2018-07-26T15:57:23.917Z,33.75
2018-07-26T15:59:50.985Z,34.23
2018-07-26T16:02:18.036Z,34.52
2018-07-26T16:04:45.693Z,34.25
2018-07-26T16:07:12.761Z,33.88
2018-07-26T16:09:39.728Z,33.67
2018-07-26T16:12:06.811Z,33.79
2018-07-26T16:14:34.029Z,34.55
2018-07-26T16:17:01.072Z,35.90
2018-07-26T16:19:28.073Z,36.29
2018-07-26T16:21:55.232Z,36.11
2018-07-26T16:24:22.254Z,36.53
2018-07-26T16:26:49.317Z,35.29
2018-07-26T16:29:16.323Z,36.21
2018-07-26T16:31:43.336Z,36.76
2018-07-26T16:34:10.505Z,36.92
2018-07-26T16:36:37.453Z,36.12
2018-07-26T16:39:07.393Z,36.92
2018-07-26T16:41:35.389Z,36.83
2018-07-26T16:44:02.663Z,36.68
2018-07-26T16:46:30.594Z,37.46
2018-07-26T16:48:57.629Z,37.34
2018-07-26T16:51:24.661Z,36.62
2018-07-26T16:53:51.708Z,36.42
2018-07-26T16:56:18.839Z,36.53
2018-07-26T16:58:45.906Z,36.81
2018-07-26T17:01:12.893Z,36.70
2018-07-26T17:03:39.905Z,37.73
2018-07-26T17:06:06.973Z,37.57
2018-07-26T17:08:33.953Z,36.93
2018-07-26T17:11:01.090Z,37.26
2018-07-26T17:13:28.292Z,37.15
2018-07-26T17:15:55.357Z,37.29
2018-07-26T17:18:22.989Z,37.96
2018-07-26T17:20:50.117Z,37.24
2018-07-26T17:23:17.140Z,37.08
2018-07-26T17:25:44.298Z,38.48
2018-07-26T17:28:12.385Z,37.40
2018-07-26T17:30:39.582Z,38.26
2018-07-26T17:33:06.989Z,38.33
2018-07-26T17:35:34.013Z,37.53
2018-07-26T17:38:01.579Z,37.60
2018-07-26T17:40:29.157Z,38.27
2018-07-26T17:42:56.163Z,38.47
2018-07-26T17:45:23.249Z,38.35
2018-07-26T17:47:50.277Z,38.03
2018-07-26T17:50:17.355Z,38.32
2018-07-26T17:52:44.429Z,38.90
2018-07-26T17:55:12.141Z,38.83
2018-07-26T17:57:39.686Z,39.69
2018-07-26T18:00:08.714Z,39.44
2018-07-26T18:02:35.781Z,38.78
2018-07-26T18:05:03.058Z,39.02
2018-07-26T18:07:30.053Z,39.16
2018-07-26T18:09:57.056Z,38.44
2018-07-26T18:12:24.056Z,38.37
2018-07-26T18:14:51.055Z,38.63
2018-07-26T18:17:18.727Z,39.03
2018-07-26T18:19:46.115Z,39.60
2018-07-26T18:22:13.849Z,39.99
2018-07-26T18:24:40.905Z,38.94
2018-07-26T18:27:08.072Z,38.97
2018-07-26T18:29:35.277Z,39.74
2018-07-26T18:32:02.348Z,38.81
2018-07-26T18:34:29.439Z,39.16
2018-07-26T18:36:56.465Z,40.05
2018-07-26T18:39:23.464Z,40.08
2018-07-26T18:41:50.480Z,39.41
2018-07-26T18:44:17.437Z,40.44
2018-07-26T18:46:44.417Z,40.69
2018-07-26T18:49:11.880Z,41.12
2018-07-26T18:51:38.881Z,41.07
2018-07-26T18:54:05.905Z,41.57
2018-07-26T18:56:32.910Z,41.21
2018-07-26T18:58:59.945Z,41.73
2018-07-26T19:01:26.968Z,41.66
2018-07-26T19:03:54.158Z,42.14
2018-07-26T19:06:21.174Z,42.49
2018-07-26T19:08:48.206Z,42.46
2018-07-26T19:11:15.188Z,42.88
2018-07-26T19:13:42.213Z,42.93
2018-07-26T19:16:09.293Z,43.22
2018-07-26T19:18:42.981Z,43.27
2018-07-26T19:21:10.037Z,43.67
2018-07-26T19:23:37.429Z,43.70
2018-07-26T19:26:04.729Z,44.00
2018-07-26T19:28:31.714Z,43.96
2018-07-26T19:30:58.873Z,44.09
2018-07-26T19:33:25.968Z,44.33
2018-07-26T19:35:52.954Z,44.43
2018-07-26T19:38:19.949Z,44.94
2018-07-26T19:40:46.989Z,44.97
2018-07-26T19:43:14.101Z,45.21
2018-07-26T19:45:41.282Z,45.27
2018-07-26T19:48:08.389Z,45.28
2018-07-26T19:50:35.360Z,45.74
2018-07-26T19:53:02.477Z,45.96
2018-07-26T19:55:29.888Z,46.24
2018-07-26T19:57:56.869Z,46.36
2018-07-26T20:00:24.561Z,46.66
2018-07-26T20:02:51.585Z,46.89
2018-07-26T20:05:18.621Z,47.01
2018-07-26T20:07:45.672Z,47.09
2018-07-26T20:10:12.989Z,47.18
2018-07-26T20:12:40.526Z,47.38
2018-07-26T20:15:07.892Z,47.65
2018-07-26T20:17:35.035Z,47.87
2018-07-26T20:20:02.265Z,48.26
2018-07-26T20:22:29.272Z,47.81
2018-07-26T20:24:56.305Z,48.13
2018-07-26T20:27:23.557Z,48.54
2018-07-26T20:29:50.605Z,48.45
2018-07-26T20:32:17.637Z,49.24
2018-07-26T20:34:44.857Z,48.96
2018-07-26T20:37:11.926Z,49.12
2018-07-26T20:39:39.044Z,49.57
2018-07-26T20:42:06.052Z,49.41
2018-07-26T20:44:33.042Z,49.74
2018-07-26T20:47:00.101Z,49.92
2018-07-26T20:49:27.093Z,50.08
2018-07-26T20:51:54.809Z,50.37
2018-07-26T20:54:21.973Z,50.43
2018-07-26T20:56:49.084Z,50.48
2018-07-26T20:59:16.065Z,50.80
2018-07-26T21:01:43.068Z,51.17
2018-07-26T21:04:10.049Z,51.19
2018-07-26T21:06:37.074Z,51.49
2018-07-26T21:09:07.393Z,51.81
2018-07-26T21:11:34.470Z,51.85
2018-07-26T21:14:01.422Z,52.09
2018-07-26T21:16:28.449Z,52.01
2018-07-26T21:18:55.477Z,51.97
2018-07-26T21:21:22.464Z,51.96
2018-07-26T21:23:49.484Z,52.68
2018-07-26T21:26:16.465Z,52.69
2018-07-26T21:28:43.473Z,52.82
2018-07-26T21:31:10.469Z,53.01
2018-07-26T21:33:37.593Z,53.26
2018-07-26T21:36:04.766Z,53.28
2018-07-26T21:38:31.874Z,53.42
2018-07-26T21:40:58.898Z,53.71
2018-07-26T21:43:25.885Z,54.05
2018-07-26T21:45:52.842Z,54.27
2018-07-26T21:48:20.106Z,54.04
2018-07-26T21:50:47.137Z,54.19
2018-07-26T21:53:14.113Z,54.39
2018-07-26T21:55:41.360Z,54.40
2018-07-26T21:58:08.329Z,54.58
2018-07-26T22:01:08.647Z,54.60
2018-07-26T22:03:35.679Z,54.58
2018-07-26T22:06:02.685Z,54.94
2018-07-26T22:08:29.892Z,54.97
2018-07-26T22:10:56.889Z,55.03
2018-07-26T22:13:23.863Z,54.84
2018-07-26T22:15:51.802Z,55.17
2018-07-26T22:18:18.978Z,55.83
2018-07-26T22:20:46.017Z,55.38
2018-07-26T22:23:13.018Z,56.12
2018-07-26T22:25:43.914Z,55.32
2018-07-26T22:28:10.929Z,55.43
2018-07-26T22:30:37.916Z,56.04
2018-07-26T22:33:04.890Z,56.24
2018-07-26T22:35:31.845Z,56.59
2018-07-26T22:37:58.840Z,56.40
2018-07-26T22:40:25.873Z,56.44
2018-07-26T22:42:52.929Z,56.50
2018-07-26T22:45:19.905Z,56.23
2018-07-26T22:47:46.860Z,56.57
2018-07-26T22:50:14.112Z,56.64
2018-07-26T22:52:41.207Z,56.22
2018-07-26T22:55:08.621Z,55.90
2018-07-26T22:57:35.597Z,56.42
2018-07-26T23:00:02.696Z,56.20
2018-07-26T23:02:29.709Z,56.35
2018-07-26T23:04:56.649Z,55.89
2018-07-26T23:07:23.712Z,56.36
2018-07-26T23:09:50.709Z,56.76
2018-07-26T23:12:17.673Z,57.11
2018-07-26T23:14:44.721Z,56.30
2018-07-26T23:17:12.389Z,56.43
2018-07-26T23:19:39.357Z,57.37
2018-07-26T23:22:06.364Z,56.71
2018-07-26T23:24:33.357Z,56.87
2018-07-26T23:27:00.698Z,57.42
2018-07-26T23:29:27.656Z,56.80
2018-07-26T23:31:54.681Z,56.72
2018-07-26T23:34:21.652Z,57.56
2018-07-26T23:36:48.628Z,57.50
2018-07-26T23:39:15.589Z,57.20
2018-07-26T23:41:42.552Z,57.54
2018-07-26T23:44:09.640Z,57.97
2018-07-26T23:46:36.953Z,57.83
2018-07-26T23:49:03.990Z,58.15
2018-07-26T23:51:31.161Z,58.48
2018-07-26T23:53:58.124Z,57.90
2018-07-26T23:56:25.137Z,58.81
2018-07-26T23:58:52.209Z,58.85
